Wetterstation Vordersexau
Wetterdaten: Juli 2014
Datum Temp. A. Feuchte A. Luftdruck Regen Wind Richtung Taupunkt Windchill Windben
01.07.2014 19,8 C 58 % 987,7 hPa 0,0 l/m 1,1 km/h SO 10,2 C 19,8 C 0,6 km/h
02.07.2014 19,5 C 65 % 990,2 hPa 0,0 l/m 1,5 km/h W 12,1 C 19,4 C 0,8 km/h
03.07.2014 23,1 C 54 % 993,4 hPa 0,0 l/m 1,8 km/h SO 11,2 C 22,9 C 1,0 km/h
04.07.2014 22,5 C 60 % 983,7 hPa 0,6 l/m 1,1 km/h SO 13,6 C 22,4 C 0,8 km/h
05.07.2014 19,6 C 76 % 983,5 hPa 1,6 l/m 6,1 km/h S 15,2 C 18,9 C 3,5 km/h
06.07.2014 24,8 C 62 % 982,2 hPa 3,4 l/m 3,6 km/h W 16,0 C 24,7 C 2,1 km/h
07.07.2014 19,4 C 76 % 985,5 hPa 2,2 l/m 2,3 km/h SO 14,9 C 19,2 C 1,3 km/h
08.07.2014 15,2 C 81 % 982,6 hPa 2,6 l/m 6,7 km/h W-SW 11,9 C 13,7 C 4,2 km/h
09.07.2014 12,8 C 83 % 982,9 hPa 2,0 l/m 2,2 km/h W-SW 10,0 C 12,7 C 1,6 km/h
10.07.2014 14,3 C 82 % 981,1 hPa 0,6 l/m 3,3 km/h S-SW 11,2 C 13,8 C 2,6 km/h
11.07.2014 18,6 C 77 % 984,2 hPa 4,8 l/m 0,9 km/h NO 14,3 C 18,5 C 0,5 km/h
12.07.2014 19,7 C 74 % 984,6 hPa 4,0 l/m 1,6 km/h W 14,6 C 19,6 C 0,9 km/h
13.07.2014 19,6 C 73 % 983,2 hPa 0,0 l/m 9,6 km/h S-SW 14,3 C 18,4 C 5,6 km/h
14.07.2014 19,4 C 78 % 985,6 hPa 6,1 l/m 4,3 km/h S-SW 15,3 C 19,0 C 2,7 km/h
15.07.2014 21,6 C 61 % 991,5 hPa 0,0 l/m 0,9 km/h SO 12,6 C 21,6 C 0,5 km/h
16.07.2014 23,3 C 62 % 991,9 hPa 0,0 l/m 1,3 km/h N-NO 14,6 C 23,2 C 0,9 km/h
17.07.2014 25,3 C 62 % 990,9 hPa 0,0 l/m 0,9 km/h N-NO 16,5 C 25,2 C 0,5 km/h
18.07.2014 26,8 C 56 % 988,0 hPa 0,0 l/m 0,4 km/h O-NO 15,7 C 26,8 C 0,3 km/h
19.07.2014 26,6 C 55 % 983,6 hPa 0,0 l/m 0,5 km/h W 15,8 C 26,6 C 0,3 km/h
20.07.2014 20,5 C 80 % 982,3 hPa 2,3 l/m 1,0 km/h O-SO 16,8 C 20,4 C 0,9 km/h
21.07.2014 18,5 C 80 % 984,0 hPa 10,7 l/m 1,4 km/h W 15,0 C 18,4 C 0,8 km/h
22.07.2014 19,1 C 81 % 988,3 hPa 12,9 l/m 0,7 km/h W 15,8 C 19,0 C 0,4 km/h
23.07.2014 22,4 C 71 % 984,7 hPa 0,0 l/m 0,2 km/h N-NO 16,4 C 22,4 C 0,2 km/h
24.07.2014 22,7 C 64 % 982,6 hPa 0,0 l/m 2,6 km/h N-NO 14,4 C 22,7 C 1,4 km/h
25.07.2014 22,0 C 67 % 983,3 hPa 0,0 l/m 0,9 km/h SO 15,0 C 21,9 C 0,5 km/h
26.07.2014 17,9 C 83 % 984,8 hPa 1,2 l/m 0,0 km/h SO 14,9 C 17,9 C 0,0 km/h
27.07.2014 22,4 C 71 % 986,8 hPa 0,0 l/m 0,7 km/h SO 16,2 C 22,4 C 0,4 km/h
28.07.2014 20,8 C 79 % 982,8 hPa 2,7 l/m 0,6 km/h SO 16,7 C 20,8 C 0,4 km/h
29.07.2014 17,4 C 83 % 980,6 hPa 2,3 l/m 0,6 km/h W 14,4 C 17,4 C 0,3 km/h
30.07.2014 18,0 C 84 % 982,0 hPa 12,4 l/m 0,3 km/h W 15,2 C 18,0 C 0,2 km/h
31.07.2014 22,5 C 69 % 985,4 hPa 0,2 l/m 1,0 km/h O-SO 16,2 C 22,5 C 0,6 km/h
Min-Datum 01.07.14 03.07.14 06.07.14 18 Tage 01.07.14 - 01.07.14 10.07.14 01.07.14
Min-Zeit 06:19 16:19 18:19 - 00:19 - 06:19 05:19 00:19
Minimum 8,6 C 21 % 978,3 hPa - 0,0 km/h - 5,9 C 6,6 C 0,0 km/h
Max-Datum 18.07.14 22.07.14 22.07.14 22.07.14 13.07.14 - 23.07.14 18.07.14 13.07.14
Max-Zeit 18:19 21:19 20:19 08:19 18:19 - 12:19 18:19 18:19
Maximum 41,8 C 87 % 1013,2 hPa 12,9 l/m 39,5 km/h
S-SW
- 22,3 C 41,8 C 22,0 km/h
S-SW
Durchschnitt 20,5 C 71 % 985,3 hPa #72,8 l/m 1,9 km/h W 14,4 C 20,3 C 1,2 km/h

Durchschnitt Minimum Temp.13,9 C
Durchschnitt Maximum Temp.29,8 C
www.sexauwetter.de